sensor_id;sensor_type;location;lat;lon;timestamp;P1;durP1;ratioP1;P2;durP2;ratioP2
62616;SDS011;62539;51.190;6.808;2024-02-04T00:00:43;0.47;;;0.47;;
62616;SDS011;62539;51.190;6.808;2024-02-04T00:03:09;1.55;;;0.40;;
62616;SDS011;62539;51.190;6.808;2024-02-04T00:05:34;0.40;;;0.40;;
62616;SDS011;62539;51.190;6.808;2024-02-04T00:07:59;0.50;;;0.50;;
62616;SDS011;62539;51.190;6.808;2024-02-04T00:10:24;0.70;;;0.60;;
62616;SDS011;62539;51.190;6.808;2024-02-04T00:12:51;1.33;;;0.80;;
62616;SDS011;62539;51.190;6.808;2024-02-04T00:15:17;0.60;;;0.45;;
62616;SDS011;62539;51.190;6.808;2024-02-04T00:17:42;0.40;;;0.40;;
62616;SDS011;62539;51.190;6.808;2024-02-04T00:20:07;1.00;;;0.50;;
62616;SDS011;62539;51.190;6.808;2024-02-04T00:22:33;0.52;;;0.40;;
62616;SDS011;62539;51.190;6.808;2024-02-04T00:25:01;0.82;;;0.55;;
62616;SDS011;62539;51.190;6.808;2024-02-04T00:27:30;1.95;;;0.50;;
62616;SDS011;62539;51.190;6.808;2024-02-04T00:29:56;0.50;;;0.50;;
62616;SDS011;62539;51.190;6.808;2024-02-04T00:32:22;1.17;;;0.60;;
62616;SDS011;62539;51.190;6.808;2024-02-04T00:34:47;0.60;;;0.50;;
62616;SDS011;62539;51.190;6.808;2024-02-04T00:37:12;0.87;;;0.50;;
62616;SDS011;62539;51.190;6.808;2024-02-04T00:39:38;0.63;;;0.50;;
62616;SDS011;62539;51.190;6.808;2024-02-04T00:42:03;1.63;;;0.50;;
62616;SDS011;62539;51.190;6.808;2024-02-04T00:44:29;1.08;;;0.50;;
62616;SDS011;62539;51.190;6.808;2024-02-04T00:46:54;0.40;;;0.40;;
62616;SDS011;62539;51.190;6.808;2024-02-04T00:49:19;0.50;;;0.40;;
62616;SDS011;62539;51.190;6.808;2024-02-04T00:51:44;0.60;;;0.60;;
62616;SDS011;62539;51.190;6.808;2024-02-04T00:54:10;0.60;;;0.50;;
62616;SDS011;62539;51.190;6.808;2024-02-04T00:56:35;3.88;;;0.50;;
62616;SDS011;62539;51.190;6.808;2024-02-04T00:59:02;1.52;;;0.50;;
62616;SDS011;62539;51.190;6.808;2024-02-04T01:01:28;0.30;;;0.30;;
62616;SDS011;62539;51.190;6.808;2024-02-04T01:03:53;0.47;;;0.47;;
62616;SDS011;62539;51.190;6.808;2024-02-04T01:06:19;0.43;;;0.43;;
62616;SDS011;62539;51.190;6.808;2024-02-04T01:08:44;0.45;;;0.40;;
62616;SDS011;62539;51.190;6.808;2024-02-04T01:11:09;0.40;;;0.40;;
62616;SDS011;62539;51.190;6.808;2024-02-04T01:13:35;1.02;;;0.65;;
62616;SDS011;62539;51.190;6.808;2024-02-04T01:16:00;0.45;;;0.45;;
62616;SDS011;62539;51.190;6.808;2024-02-04T01:18:25;0.50;;;0.50;;
62616;SDS011;62539;51.190;6.808;2024-02-04T01:20:51;0.50;;;0.50;;
62616;SDS011;62539;51.190;6.808;2024-02-04T01:23:16;0.40;;;0.40;;
62616;SDS011;62539;51.190;6.808;2024-02-04T01:25:44;0.50;;;0.50;;
62616;SDS011;62539;51.190;6.808;2024-02-04T01:28:10;0.45;;;0.43;;
62616;SDS011;62539;51.190;6.808;2024-02-04T01:30:35;0.40;;;0.40;;
62616;SDS011;62539;51.190;6.808;2024-02-04T01:33:02;0.30;;;0.30;;
62616;SDS011;62539;51.190;6.808;2024-02-04T01:35:27;0.63;;;0.40;;
62616;SDS011;62539;51.190;6.808;2024-02-04T01:37:52;0.50;;;0.50;;
62616;SDS011;62539;51.190;6.808;2024-02-04T01:40:18;0.53;;;0.50;;
62616;SDS011;62539;51.190;6.808;2024-02-04T01:42:43;0.75;;;0.52;;
62616;SDS011;62539;51.190;6.808;2024-02-04T01:45:08;1.08;;;0.40;;
62616;SDS011;62539;51.190;6.808;2024-02-04T01:47:34;0.40;;;0.40;;
62616;SDS011;62539;51.190;6.808;2024-02-04T01:49:59;0.30;;;0.30;;
62616;SDS011;62539;51.190;6.808;2024-02-04T01:52:27;0.40;;;0.40;;
62616;SDS011;62539;51.190;6.808;2024-02-04T01:54:53;0.30;;;0.30;;
62616;SDS011;62539;51.190;6.808;2024-02-04T01:57:18;0.35;;;0.35;;
62616;SDS011;62539;51.190;6.808;2024-02-04T01:59:44;0.40;;;0.40;;
62616;SDS011;62539;51.190;6.808;2024-02-04T02:02:10;0.90;;;0.50;;
62616;SDS011;62539;51.190;6.808;2024-02-04T02:04:36;0.40;;;0.40;;
62616;SDS011;62539;51.190;6.808;2024-02-04T02:07:01;1.08;;;0.50;;
62616;SDS011;62539;51.190;6.808;2024-02-04T02:09:27;0.40;;;0.40;;
62616;SDS011;62539;51.190;6.808;2024-02-04T02:11:56;0.38;;;0.30;;
62616;SDS011;62539;51.190;6.808;2024-02-04T02:14:27;0.40;;;0.30;;
62616;SDS011;62539;51.190;6.808;2024-02-04T02:16:57;0.50;;;0.50;;
62616;SDS011;62539;51.190;6.808;2024-02-04T02:22:06;0.40;;;0.40;;
62616;SDS011;62539;51.190;6.808;2024-02-04T02:24:39;0.70;;;0.40;;
62616;SDS011;62539;51.190;6.808;2024-02-04T02:27:07;0.80;;;0.38;;
62616;SDS011;62539;51.190;6.808;2024-02-04T02:29:33;0.50;;;0.50;;
62616;SDS011;62539;51.190;6.808;2024-02-04T02:31:59;0.30;;;0.30;;
62616;SDS011;62539;51.190;6.808;2024-02-04T02:34:26;0.32;;;0.32;;
62616;SDS011;62539;51.190;6.808;2024-02-04T02:36:56;0.43;;;0.40;;
62616;SDS011;62539;51.190;6.808;2024-02-04T02:39:31;0.40;;;0.40;;
62616;SDS011;62539;51.190;6.808;2024-02-04T02:41:59;0.55;;;0.40;;
62616;SDS011;62539;51.190;6.808;2024-02-04T02:44:28;0.40;;;0.40;;
62616;SDS011;62539;51.190;6.808;2024-02-04T02:46:54;0.50;;;0.50;;
62616;SDS011;62539;51.190;6.808;2024-02-04T02:49:22;0.45;;;0.45;;
62616;SDS011;62539;51.190;6.808;2024-02-04T02:51:47;0.40;;;0.40;;
62616;SDS011;62539;51.190;6.808;2024-02-04T02:54:13;0.65;;;0.52;;
62616;SDS011;62539;51.190;6.808;2024-02-04T02:56:38;0.50;;;0.40;;
62616;SDS011;62539;51.190;6.808;2024-02-04T02:59:03;0.40;;;0.40;;
62616;SDS011;62539;51.190;6.808;2024-02-04T03:01:29;0.60;;;0.60;;
62616;SDS011;62539;51.190;6.808;2024-02-04T03:03:55;0.40;;;0.40;;
62616;SDS011;62539;51.190;6.808;2024-02-04T03:06:20;0.40;;;0.40;;
62616;SDS011;62539;51.190;6.808;2024-02-04T03:08:45;0.40;;;0.40;;
62616;SDS011;62539;51.190;6.808;2024-02-04T03:11:11;0.30;;;0.30;;
62616;SDS011;62539;51.190;6.808;2024-02-04T03:13:38;0.50;;;0.35;;
62616;SDS011;62539;51.190;6.808;2024-02-04T03:16:04;0.35;;;0.35;;
62616;SDS011;62539;51.190;6.808;2024-02-04T03:18:29;0.40;;;0.40;;
62616;SDS011;62539;51.190;6.808;2024-02-04T03:20:54;0.40;;;0.40;;
62616;SDS011;62539;51.190;6.808;2024-02-04T03:23:20;0.40;;;0.40;;
62616;SDS011;62539;51.190;6.808;2024-02-04T03:25:45;0.30;;;0.30;;
62616;SDS011;62539;51.190;6.808;2024-02-04T03:28:10;0.40;;;0.40;;
62616;SDS011;62539;51.190;6.808;2024-02-04T03:30:36;0.35;;;0.30;;
62616;SDS011;62539;51.190;6.808;2024-02-04T03:33:01;0.40;;;0.40;;
62616;SDS011;62539;51.190;6.808;2024-02-04T03:35:26;0.40;;;0.40;;
62616;SDS011;62539;51.190;6.808;2024-02-04T03:37:51;0.40;;;0.40;;
62616;SDS011;62539;51.190;6.808;2024-02-04T03:40:17;1.33;;;0.30;;
62616;SDS011;62539;51.190;6.808;2024-02-04T03:42:44;0.40;;;0.40;;
62616;SDS011;62539;51.190;6.808;2024-02-04T03:45:09;1.17;;;0.45;;
62616;SDS011;62539;51.190;6.808;2024-02-04T03:47:34;0.37;;;0.37;;
62616;SDS011;62539;51.190;6.808;2024-02-04T03:50:00;0.30;;;0.30;;
62616;SDS011;62539;51.190;6.808;2024-02-04T03:52:25;0.30;;;0.30;;
62616;SDS011;62539;51.190;6.808;2024-02-04T03:54:50;0.50;;;0.50;;
62616;SDS011;62539;51.190;6.808;2024-02-04T03:57:16;0.40;;;0.40;;
62616;SDS011;62539;51.190;6.808;2024-02-04T03:59:44;0.30;;;0.30;;
62616;SDS011;62539;51.190;6.808;2024-02-04T04:02:10;0.30;;;0.30;;
62616;SDS011;62539;51.190;6.808;2024-02-04T04:04:36;0.38;;;0.38;;
62616;SDS011;62539;51.190;6.808;2024-02-04T04:07:01;0.40;;;0.40;;
62616;SDS011;62539;51.190;6.808;2024-02-04T04:09:26;1.55;;;0.40;;
62616;SDS011;62539;51.190;6.808;2024-02-04T04:11:52;0.70;;;0.47;;
62616;SDS011;62539;51.190;6.808;2024-02-04T04:14:17;0.30;;;0.30;;
62616;SDS011;62539;51.190;6.808;2024-02-04T04:16:42;0.30;;;0.30;;
62616;SDS011;62539;51.190;6.808;2024-02-04T04:19:07;0.40;;;0.40;;
62616;SDS011;62539;51.190;6.808;2024-02-04T04:21:33;0.40;;;0.40;;
62616;SDS011;62539;51.190;6.808;2024-02-04T04:23:58;0.50;;;0.50;;
62616;SDS011;62539;51.190;6.808;2024-02-04T04:26:23;0.40;;;0.40;;
62616;SDS011;62539;51.190;6.808;2024-02-04T04:28:49;0.45;;;0.40;;
62616;SDS011;62539;51.190;6.808;2024-02-04T04:31:14;0.32;;;0.32;;
62616;SDS011;62539;51.190;6.808;2024-02-04T04:33:40;0.40;;;0.40;;
62616;SDS011;62539;51.190;6.808;2024-02-04T04:36:05;0.45;;;0.45;;
62616;SDS011;62539;51.190;6.808;2024-02-04T04:38:31;0.30;;;0.30;;
62616;SDS011;62539;51.190;6.808;2024-02-04T04:40:56;0.40;;;0.40;;
62616;SDS011;62539;51.190;6.808;2024-02-04T04:43:21;0.40;;;0.40;;
62616;SDS011;62539;51.190;6.808;2024-02-04T04:45:47;1.45;;;0.60;;
62616;SDS011;62539;51.190;6.808;2024-02-04T04:48:12;0.60;;;0.43;;
62616;SDS011;62539;51.190;6.808;2024-02-04T04:50:38;0.50;;;0.47;;
62616;SDS011;62539;51.190;6.808;2024-02-04T04:53:03;1.25;;;0.60;;
62616;SDS011;62539;51.190;6.808;2024-02-04T04:55:28;0.40;;;0.40;;
62616;SDS011;62539;51.190;6.808;2024-02-04T04:57:53;0.30;;;0.30;;
62616;SDS011;62539;51.190;6.808;2024-02-04T05:00:19;0.63;;;0.50;;
62616;SDS011;62539;51.190;6.808;2024-02-04T05:02:44;0.30;;;0.30;;
62616;SDS011;62539;51.190;6.808;2024-02-04T05:05:10;0.40;;;0.40;;
62616;SDS011;62539;51.190;6.808;2024-02-04T05:07:36;0.60;;;0.60;;
62616;SDS011;62539;51.190;6.808;2024-02-04T05:10:02;0.50;;;0.43;;
62616;SDS011;62539;51.190;6.808;2024-02-04T05:12:27;0.57;;;0.32;;
62616;SDS011;62539;51.190;6.808;2024-02-04T05:14:53;0.47;;;0.40;;
62616;SDS011;62539;51.190;6.808;2024-02-04T05:17:18;0.40;;;0.40;;
62616;SDS011;62539;51.190;6.808;2024-02-04T05:19:43;1.02;;;0.50;;
62616;SDS011;62539;51.190;6.808;2024-02-04T05:22:09;1.10;;;0.40;;
62616;SDS011;62539;51.190;6.808;2024-02-04T05:24:34;0.47;;;0.47;;
62616;SDS011;62539;51.190;6.808;2024-02-04T05:27:00;0.30;;;0.30;;
62616;SDS011;62539;51.190;6.808;2024-02-04T05:29:25;0.35;;;0.35;;
62616;SDS011;62539;51.190;6.808;2024-02-04T05:31:50;0.45;;;0.45;;
62616;SDS011;62539;51.190;6.808;2024-02-04T05:34:17;0.45;;;0.40;;
62616;SDS011;62539;51.190;6.808;2024-02-04T05:36:42;0.50;;;0.50;;
62616;SDS011;62539;51.190;6.808;2024-02-04T05:41:37;0.60;;;0.40;;
62616;SDS011;62539;51.190;6.808;2024-02-04T05:44:02;0.47;;;0.47;;
62616;SDS011;62539;51.190;6.808;2024-02-04T05:46:28;0.43;;;0.43;;
62616;SDS011;62539;51.190;6.808;2024-02-04T05:48:53;0.63;;;0.45;;
62616;SDS011;62539;51.190;6.808;2024-02-04T05:51:18;0.35;;;0.35;;
62616;SDS011;62539;51.190;6.808;2024-02-04T05:53:44;0.40;;;0.40;;
62616;SDS011;62539;51.190;6.808;2024-02-04T05:56:09;0.63;;;0.50;;
62616;SDS011;62539;51.190;6.808;2024-02-04T05:58:34;0.57;;;0.40;;
62616;SDS011;62539;51.190;6.808;2024-02-04T06:00:59;1.45;;;0.43;;
62616;SDS011;62539;51.190;6.808;2024-02-04T06:03:25;0.60;;;0.50;;
62616;SDS011;62539;51.190;6.808;2024-02-04T06:05:50;0.43;;;0.43;;
62616;SDS011;62539;51.190;6.808;2024-02-04T06:08:15;0.82;;;0.50;;
62616;SDS011;62539;51.190;6.808;2024-02-04T06:10:41;0.55;;;0.40;;
62616;SDS011;62539;51.190;6.808;2024-02-04T06:13:06;0.40;;;0.40;;
62616;SDS011;62539;51.190;6.808;2024-02-04T06:15:31;0.75;;;0.50;;
62616;SDS011;62539;51.190;6.808;2024-02-04T06:17:57;0.40;;;0.40;;
62616;SDS011;62539;51.190;6.808;2024-02-04T06:20:22;0.30;;;0.30;;
62616;SDS011;62539;51.190;6.808;2024-02-04T06:22:47;0.40;;;0.40;;
62616;SDS011;62539;51.190;6.808;2024-02-04T06:25:13;0.35;;;0.35;;
62616;SDS011;62539;51.190;6.808;2024-02-04T06:27:38;0.45;;;0.43;;
62616;SDS011;62539;51.190;6.808;2024-02-04T06:30:03;0.30;;;0.30;;
62616;SDS011;62539;51.190;6.808;2024-02-04T06:32:29;0.40;;;0.40;;
62616;SDS011;62539;51.190;6.808;2024-02-04T06:34:54;2.00;;;0.43;;
62616;SDS011;62539;51.190;6.808;2024-02-04T06:37:20;0.55;;;0.50;;
62616;SDS011;62539;51.190;6.808;2024-02-04T06:39:46;0.40;;;0.40;;
62616;SDS011;62539;51.190;6.808;2024-02-04T06:42:11;0.40;;;0.40;;
62616;SDS011;62539;51.190;6.808;2024-02-04T06:44:36;0.50;;;0.35;;
62616;SDS011;62539;51.190;6.808;2024-02-04T06:47:02;0.40;;;0.40;;
62616;SDS011;62539;51.190;6.808;2024-02-04T06:49:27;0.30;;;0.30;;
62616;SDS011;62539;51.190;6.808;2024-02-04T06:51:53;0.30;;;0.30;;
62616;SDS011;62539;51.190;6.808;2024-02-04T06:54:22;0.52;;;0.45;;
62616;SDS011;62539;51.190;6.808;2024-02-04T06:56:50;1.00;;;0.40;;
62616;SDS011;62539;51.190;6.808;2024-02-04T06:59:17;0.40;;;0.40;;
62616;SDS011;62539;51.190;6.808;2024-02-04T07:01:42;0.30;;;0.30;;
62616;SDS011;62539;51.190;6.808;2024-02-04T07:04:08;0.30;;;0.30;;
62616;SDS011;62539;51.190;6.808;2024-02-04T07:06:33;0.30;;;0.30;;
62616;SDS011;62539;51.190;6.808;2024-02-04T07:08:58;0.52;;;0.38;;
62616;SDS011;62539;51.190;6.808;2024-02-04T07:11:24;0.30;;;0.30;;
62616;SDS011;62539;51.190;6.808;2024-02-04T07:13:49;0.57;;;0.40;;
62616;SDS011;62539;51.190;6.808;2024-02-04T07:16:14;0.30;;;0.30;;
62616;SDS011;62539;51.190;6.808;2024-02-04T07:18:40;0.40;;;0.40;;
62616;SDS011;62539;51.190;6.808;2024-02-04T07:21:05;0.43;;;0.40;;
62616;SDS011;62539;51.190;6.808;2024-02-04T07:23:30;0.30;;;0.30;;
62616;SDS011;62539;51.190;6.808;2024-02-04T07:25:55;0.50;;;0.50;;
62616;SDS011;62539;51.190;6.808;2024-02-04T07:28:21;0.40;;;0.40;;
62616;SDS011;62539;51.190;6.808;2024-02-04T07:30:47;1.05;;;0.40;;
62616;SDS011;62539;51.190;6.808;2024-02-04T07:33:12;0.40;;;0.40;;
62616;SDS011;62539;51.190;6.808;2024-02-04T07:35:37;0.28;;;0.28;;
62616;SDS011;62539;51.190;6.808;2024-02-04T07:38:03;0.40;;;0.40;;
62616;SDS011;62539;51.190;6.808;2024-02-04T07:40:28;0.30;;;0.30;;
62616;SDS011;62539;51.190;6.808;2024-02-04T07:42:55;0.40;;;0.40;;
62616;SDS011;62539;51.190;6.808;2024-02-04T07:45:20;0.50;;;0.40;;
62616;SDS011;62539;51.190;6.808;2024-02-04T07:47:45;0.52;;;0.50;;
62616;SDS011;62539;51.190;6.808;2024-02-04T07:50:11;2.75;;;0.40;;
62616;SDS011;62539;51.190;6.808;2024-02-04T07:52:36;0.40;;;0.40;;
62616;SDS011;62539;51.190;6.808;2024-02-04T07:55:02;0.40;;;0.30;;
62616;SDS011;62539;51.190;6.808;2024-02-04T07:57:27;0.30;;;0.30;;
62616;SDS011;62539;51.190;6.808;2024-02-04T07:59:52;0.40;;;0.40;;
62616;SDS011;62539;51.190;6.808;2024-02-04T08:02:18;0.47;;;0.47;;
62616;SDS011;62539;51.190;6.808;2024-02-04T08:04:43;0.40;;;0.40;;
62616;SDS011;62539;51.190;6.808;2024-02-04T08:07:08;0.40;;;0.40;;
62616;SDS011;62539;51.190;6.808;2024-02-04T08:09:34;0.50;;;0.50;;
62616;SDS011;62539;51.190;6.808;2024-02-04T08:11:59;1.65;;;0.50;;
62616;SDS011;62539;51.190;6.808;2024-02-04T08:14:24;0.40;;;0.40;;
62616;SDS011;62539;51.190;6.808;2024-02-04T08:16:50;0.30;;;0.30;;
62616;SDS011;62539;51.190;6.808;2024-02-04T08:19:15;0.30;;;0.30;;
62616;SDS011;62539;51.190;6.808;2024-02-04T08:21:41;0.30;;;0.30;;
62616;SDS011;62539;51.190;6.808;2024-02-04T08:24:06;0.40;;;0.40;;
62616;SDS011;62539;51.190;6.808;2024-02-04T08:26:32;0.28;;;0.22;;
62616;SDS011;62539;51.190;6.808;2024-02-04T08:28:57;0.47;;;0.30;;
62616;SDS011;62539;51.190;6.808;2024-02-04T08:31:22;0.30;;;0.30;;
62616;SDS011;62539;51.190;6.808;2024-02-04T08:33:48;0.30;;;0.30;;
62616;SDS011;62539;51.190;6.808;2024-02-04T08:36:13;0.30;;;0.30;;
62616;SDS011;62539;51.190;6.808;2024-02-04T08:38:38;0.30;;;0.30;;
62616;SDS011;62539;51.190;6.808;2024-02-04T08:41:04;2.72;;;0.40;;
62616;SDS011;62539;51.190;6.808;2024-02-04T08:43:29;0.30;;;0.30;;
62616;SDS011;62539;51.190;6.808;2024-02-04T08:45:54;0.45;;;0.43;;
62616;SDS011;62539;51.190;6.808;2024-02-04T08:48:20;0.30;;;0.30;;
62616;SDS011;62539;51.190;6.808;2024-02-04T08:50:45;0.20;;;0.20;;
62616;SDS011;62539;51.190;6.808;2024-02-04T08:53:10;0.30;;;0.30;;
62616;SDS011;62539;51.190;6.808;2024-02-04T08:55:35;0.40;;;0.40;;
62616;SDS011;62539;51.190;6.808;2024-02-04T08:58:01;0.68;;;0.50;;
62616;SDS011;62539;51.190;6.808;2024-02-04T09:00:26;1.48;;;0.35;;
62616;SDS011;62539;51.190;6.808;2024-02-04T09:02:51;0.40;;;0.40;;
62616;SDS011;62539;51.190;6.808;2024-02-04T09:05:17;0.40;;;0.40;;
62616;SDS011;62539;51.190;6.808;2024-02-04T09:07:43;0.80;;;0.40;;
62616;SDS011;62539;51.190;6.808;2024-02-04T09:10:08;0.50;;;0.40;;
62616;SDS011;62539;51.190;6.808;2024-02-04T09:12:34;0.30;;;0.30;;
62616;SDS011;62539;51.190;6.808;2024-02-04T09:14:59;0.30;;;0.30;;
62616;SDS011;62539;51.190;6.808;2024-02-04T09:17:24;0.25;;;0.25;;
62616;SDS011;62539;51.190;6.808;2024-02-04T09:19:49;0.45;;;0.30;;
62616;SDS011;62539;51.190;6.808;2024-02-04T09:22:15;0.30;;;0.30;;
62616;SDS011;62539;51.190;6.808;2024-02-04T09:24:40;0.53;;;0.40;;
62616;SDS011;62539;51.190;6.808;2024-02-04T09:27:05;0.30;;;0.30;;
62616;SDS011;62539;51.190;6.808;2024-02-04T09:29:30;0.30;;;0.30;;
62616;SDS011;62539;51.190;6.808;2024-02-04T09:31:56;0.30;;;0.30;;
62616;SDS011;62539;51.190;6.808;2024-02-04T09:34:21;0.60;;;0.57;;
62616;SDS011;62539;51.190;6.808;2024-02-04T09:36:47;0.30;;;0.30;;
62616;SDS011;62539;51.190;6.808;2024-02-04T09:39:12;0.47;;;0.38;;
62616;SDS011;62539;51.190;6.808;2024-02-04T09:41:37;0.35;;;0.32;;
62616;SDS011;62539;51.190;6.808;2024-02-04T09:44:02;0.47;;;0.38;;
62616;SDS011;62539;51.190;6.808;2024-02-04T09:46:29;0.20;;;0.20;;
62616;SDS011;62539;51.190;6.808;2024-02-04T09:48:55;0.30;;;0.30;;
62616;SDS011;62539;51.190;6.808;2024-02-04T09:51:20;0.30;;;0.30;;
62616;SDS011;62539;51.190;6.808;2024-02-04T09:53:46;0.40;;;0.40;;
62616;SDS011;62539;51.190;6.808;2024-02-04T09:58:42;0.30;;;0.30;;
62616;SDS011;62539;51.190;6.808;2024-02-04T10:01:08;0.30;;;0.30;;
62616;SDS011;62539;51.190;6.808;2024-02-04T10:03:33;0.38;;;0.38;;
62616;SDS011;62539;51.190;6.808;2024-02-04T10:05:59;0.98;;;0.30;;
62616;SDS011;62539;51.190;6.808;2024-02-04T10:08:24;1.10;;;0.40;;
62616;SDS011;62539;51.190;6.808;2024-02-04T10:10:50;1.00;;;0.38;;
62616;SDS011;62539;51.190;6.808;2024-02-04T10:13:15;0.45;;;0.45;;
62616;SDS011;62539;51.190;6.808;2024-02-04T10:15:40;0.30;;;0.30;;
62616;SDS011;62539;51.190;6.808;2024-02-04T10:18:09;0.55;;;0.43;;
62616;SDS011;62539;51.190;6.808;2024-02-04T10:20:34;0.30;;;0.30;;
62616;SDS011;62539;51.190;6.808;2024-02-04T10:23:00;0.40;;;0.40;;
62616;SDS011;62539;51.190;6.808;2024-02-04T10:25:25;1.17;;;0.40;;
62616;SDS011;62539;51.190;6.808;2024-02-04T10:27:52;0.40;;;0.40;;
62616;SDS011;62539;51.190;6.808;2024-02-04T10:30:21;0.40;;;0.40;;
62616;SDS011;62539;51.190;6.808;2024-02-04T10:32:53;0.30;;;0.30;;
62616;SDS011;62539;51.190;6.808;2024-02-04T10:35:25;0.40;;;0.30;;
62616;SDS011;62539;51.190;6.808;2024-02-04T10:37:50;0.30;;;0.30;;
62616;SDS011;62539;51.190;6.808;2024-02-04T10:40:17;0.40;;;0.40;;
62616;SDS011;62539;51.190;6.808;2024-02-04T10:42:43;0.30;;;0.30;;
62616;SDS011;62539;51.190;6.808;2024-02-04T10:45:09;0.63;;;0.40;;
62616;SDS011;62539;51.190;6.808;2024-02-04T10:47:37;0.35;;;0.30;;
62616;SDS011;62539;51.190;6.808;2024-02-04T10:50:03;0.52;;;0.38;;
62616;SDS011;62539;51.190;6.808;2024-02-04T10:52:31;0.40;;;0.40;;
62616;SDS011;62539;51.190;6.808;2024-02-04T10:55:02;0.30;;;0.30;;
62616;SDS011;62539;51.190;6.808;2024-02-04T10:57:31;0.65;;;0.35;;
62616;SDS011;62539;51.190;6.808;2024-02-04T10:59:57;2.15;;;0.60;;
62616;SDS011;62539;51.190;6.808;2024-02-04T11:02:24;0.90;;;0.43;;
62616;SDS011;62539;51.190;6.808;2024-02-04T11:04:50;10.32;;;0.60;;
62616;SDS011;62539;51.190;6.808;2024-02-04T11:07:17;3.92;;;0.60;;
62616;SDS011;62539;51.190;6.808;2024-02-04T11:09:44;7.65;;;0.60;;
62616;SDS011;62539;51.190;6.808;2024-02-04T11:12:14;0.85;;;0.68;;
62616;SDS011;62539;51.190;6.808;2024-02-04T11:14:43;7.63;;;0.70;;
62616;SDS011;62539;51.190;6.808;2024-02-04T11:20:36;3.60;;;0.50;;
62616;SDS011;62539;51.190;6.808;2024-02-04T11:23:25;4.18;;;0.63;;
62616;SDS011;62539;51.190;6.808;2024-02-04T11:25:59;1.75;;;0.50;;
62616;SDS011;62539;51.190;6.808;2024-02-04T11:28:25;1.33;;;0.50;;
62616;SDS011;62539;51.190;6.808;2024-02-04T11:30:51;1.70;;;0.50;;
62616;SDS011;62539;51.190;6.808;2024-02-04T11:33:20;3.35;;;0.55;;
62616;SDS011;62539;51.190;6.808;2024-02-04T11:35:46;2.13;;;0.50;;
62616;SDS011;62539;51.190;6.808;2024-02-04T11:38:16;3.85;;;0.80;;
62616;SDS011;62539;51.190;6.808;2024-02-04T11:40:42;10.80;;;0.90;;
62616;SDS011;62539;51.190;6.808;2024-02-04T11:43:11;9.73;;;0.75;;
62616;SDS011;62539;51.190;6.808;2024-02-04T11:45:41;2.42;;;0.50;;
62616;SDS011;62539;51.190;6.808;2024-02-04T11:48:08;3.45;;;0.90;;
62616;SDS011;62539;51.190;6.808;2024-02-04T11:50:36;5.93;;;0.68;;
62616;SDS011;62539;51.190;6.808;2024-02-04T11:53:06;2.47;;;0.63;;
62616;SDS011;62539;51.190;6.808;2024-02-04T11:55:34;3.55;;;0.57;;
62616;SDS011;62539;51.190;6.808;2024-02-04T11:58:00;2.13;;;0.50;;
62616;SDS011;62539;51.190;6.808;2024-02-04T12:00:26;4.60;;;0.63;;
62616;SDS011;62539;51.190;6.808;2024-02-04T12:03:01;10.10;;;0.70;;
62616;SDS011;62539;51.190;6.808;2024-02-04T12:05:27;6.50;;;0.90;;
62616;SDS011;62539;51.190;6.808;2024-02-04T12:07:53;12.85;;;1.23;;
62616;SDS011;62539;51.190;6.808;2024-02-04T12:10:18;14.52;;;2.22;;
62616;SDS011;62539;51.190;6.808;2024-02-04T12:12:44;9.27;;;1.58;;
62616;SDS011;62539;51.190;6.808;2024-02-04T12:15:10;15.73;;;2.38;;
62616;SDS011;62539;51.190;6.808;2024-02-04T12:17:36;16.48;;;2.60;;
62616;SDS011;62539;51.190;6.808;2024-02-04T12:20:01;7.30;;;1.20;;
62616;SDS011;62539;51.190;6.808;2024-02-04T12:22:30;7.85;;;1.65;;
62616;SDS011;62539;51.190;6.808;2024-02-04T12:24:56;11.43;;;1.65;;
62616;SDS011;62539;51.190;6.808;2024-02-04T12:27:22;11.07;;;1.83;;
62616;SDS011;62539;51.190;6.808;2024-02-04T12:29:50;5.90;;;1.42;;
62616;SDS011;62539;51.190;6.808;2024-02-04T12:32:17;13.50;;;1.70;;
62616;SDS011;62539;51.190;6.808;2024-02-04T12:34:47;7.45;;;1.30;;
62616;SDS011;62539;51.190;6.808;2024-02-04T12:37:13;9.55;;;1.60;;
62616;SDS011;62539;51.190;6.808;2024-02-04T12:39:38;4.40;;;1.35;;
62616;SDS011;62539;51.190;6.808;2024-02-04T12:42:03;7.15;;;1.30;;
62616;SDS011;62539;51.190;6.808;2024-02-04T12:44:29;4.72;;;1.30;;
62616;SDS011;62539;51.190;6.808;2024-02-04T12:46:55;7.13;;;1.30;;
62616;SDS011;62539;51.190;6.808;2024-02-04T12:49:20;14.25;;;1.30;;
62616;SDS011;62539;51.190;6.808;2024-02-04T12:51:47;5.93;;;1.52;;
62616;SDS011;62539;51.190;6.808;2024-02-04T12:54:12;11.98;;;1.85;;
62616;SDS011;62539;51.190;6.808;2024-02-04T12:56:41;5.43;;;1.17;;
62616;SDS011;62539;51.190;6.808;2024-02-04T12:59:08;14.75;;;1.60;;
62616;SDS011;62539;51.190;6.808;2024-02-04T13:01:35;6.10;;;1.52;;
62616;SDS011;62539;51.190;6.808;2024-02-04T13:04:04;11.05;;;1.50;;
62616;SDS011;62539;51.190;6.808;2024-02-04T13:06:30;5.05;;;1.20;;
62616;SDS011;62539;51.190;6.808;2024-02-04T13:08:55;5.20;;;1.10;;
62616;SDS011;62539;51.190;6.808;2024-02-04T13:11:24;8.48;;;1.38;;
62616;SDS011;62539;51.190;6.808;2024-02-04T13:13:50;9.07;;;1.75;;
62616;SDS011;62539;51.190;6.808;2024-02-04T13:16:16;10.60;;;1.30;;
62616;SDS011;62539;51.190;6.808;2024-02-04T13:18:43;11.13;;;1.40;;
62616;SDS011;62539;51.190;6.808;2024-02-04T13:21:08;7.03;;;1.43;;
62616;SDS011;62539;51.190;6.808;2024-02-04T13:23:34;5.13;;;1.03;;
62616;SDS011;62539;51.190;6.808;2024-02-04T13:25:59;9.60;;;1.02;;
62616;SDS011;62539;51.190;6.808;2024-02-04T13:28:25;4.35;;;1.35;;
62616;SDS011;62539;51.190;6.808;2024-02-04T13:30:50;6.32;;;1.00;;
62616;SDS011;62539;51.190;6.808;2024-02-04T13:33:15;13.18;;;1.83;;
62616;SDS011;62539;51.190;6.808;2024-02-04T13:35:41;4.27;;;1.17;;
62616;SDS011;62539;51.190;6.808;2024-02-04T13:38:06;11.27;;;1.33;;
62616;SDS011;62539;51.190;6.808;2024-02-04T13:40:33;7.63;;;1.40;;
62616;SDS011;62539;51.190;6.808;2024-02-04T13:42:59;6.65;;;1.60;;
62616;SDS011;62539;51.190;6.808;2024-02-04T13:45:24;8.55;;;1.30;;
62616;SDS011;62539;51.190;6.808;2024-02-04T13:47:50;6.53;;;1.30;;
62616;SDS011;62539;51.190;6.808;2024-02-04T13:50:15;3.15;;;1.08;;
62616;SDS011;62539;51.190;6.808;2024-02-04T13:52:40;7.25;;;1.05;;
62616;SDS011;62539;51.190;6.808;2024-02-04T13:55:06;4.53;;;1.10;;
62616;SDS011;62539;51.190;6.808;2024-02-04T13:57:32;7.28;;;1.10;;
62616;SDS011;62539;51.190;6.808;2024-02-04T13:59:58;4.80;;;1.25;;
62616;SDS011;62539;51.190;6.808;2024-02-04T14:02:23;6.05;;;1.00;;
62616;SDS011;62539;51.190;6.808;2024-02-04T14:04:51;3.38;;;0.98;;
62616;SDS011;62539;51.190;6.808;2024-02-04T14:07:17;8.43;;;1.40;;
62616;SDS011;62539;51.190;6.808;2024-02-04T14:09:43;7.50;;;1.13;;
62616;SDS011;62539;51.190;6.808;2024-02-04T14:12:08;3.47;;;0.90;;
62616;SDS011;62539;51.190;6.808;2024-02-04T14:14:33;6.32;;;1.20;;
62616;SDS011;62539;51.190;6.808;2024-02-04T14:16:59;4.05;;;1.00;;
62616;SDS011;62539;51.190;6.808;2024-02-04T14:19:24;12.43;;;1.30;;
62616;SDS011;62539;51.190;6.808;2024-02-04T14:21:50;15.20;;;1.25;;
62616;SDS011;62539;51.190;6.808;2024-02-04T14:24:15;5.83;;;1.20;;
62616;SDS011;62539;51.190;6.808;2024-02-04T14:26:40;3.67;;;1.20;;
62616;SDS011;62539;51.190;6.808;2024-02-04T14:29:06;9.40;;;1.40;;
62616;SDS011;62539;51.190;6.808;2024-02-04T14:31:31;12.13;;;1.23;;
62616;SDS011;62539;51.190;6.808;2024-02-04T14:33:57;5.93;;;1.10;;
62616;SDS011;62539;51.190;6.808;2024-02-04T14:36:23;8.27;;;1.30;;
62616;SDS011;62539;51.190;6.808;2024-02-04T14:38:48;5.00;;;1.00;;
62616;SDS011;62539;51.190;6.808;2024-02-04T14:41:13;6.30;;;1.33;;
62616;SDS011;62539;51.190;6.808;2024-02-04T14:43:39;4.30;;;1.20;;
62616;SDS011;62539;51.190;6.808;2024-02-04T14:46:04;6.47;;;1.10;;
62616;SDS011;62539;51.190;6.808;2024-02-04T14:48:30;2.95;;;1.10;;
62616;SDS011;62539;51.190;6.808;2024-02-04T14:50:55;4.28;;;0.98;;